Terminal Aerodrome Forecast
Issued by NWS Sioux Falls, SD

Home | Current Version | Previous Version | Graphics & Text | Print | Product List | Glossary Off
Versions: 1 2 3 4 5 6 7 8 9 10 11 12 13

000
FTUS43 KFSD 311142
TAFFSD
TAF
KFSD 311142Z 3112/0112 11006KT P6SM BKN200
     FM311500 13011KT P6SM SCT030 OVC200
      TEMPO 3115/3118 BKN035
     FM312100 12013G19KT P6SM SCT035 BKN100
     FM010100 13009KT P6SM OVC080
     FM010600 14010KT P6SM OVC050=

USA.gov is the U.S. government's official web portal to all federal, state and local government web resources and services.